Time;durP1;ratioP1;P1;durP2;ratioP2;P2;SDS_P1;SDS_P2;PMS_P1;PMS_P2;Temp;Humidity;BMP_temperature;BMP_pressure;BME280_temperature;BME280_humidity;BME280_pressure;Samples;Min_cycle;Max_cycle;Signal;HPM_P1;HPM_P2
2021/03/08 00:00:46;;;;;;;56.83;30.07;;;4.30;85.10;;;;;;4418052;32;20195;-64
2021/03/08 00:03:14;;;;;;;53.37;30.77;;;4.30;85.10;;;;;;4421894;32;20156;-69
2021/03/08 00:05:42;;;;;;;52.37;29.80;;;4.40;85.20;;;;;;4421822;32;20280;-66
2021/03/08 00:08:08;;;;;;;56.77;32.17;;;4.40;85.60;;;;;;4423718;32;20583;-65
2021/03/08 00:10:35;;;;;;;57.53;31.30;;;4.30;85.20;;;;;;4421236;32;20203;-65
2021/03/08 00:13:01;;;;;;;53.67;31.23;;;4.30;85.10;;;;;;4424031;32;20136;-65
2021/03/08 00:15:28;;;;;;;53.33;30.07;;;4.40;84.80;;;;;;4422000;32;20160;-68
2021/03/08 00:17:56;;;;;;;50.90;28.23;;;4.40;85.00;;;;;;4422248;32;20199;-69
2021/03/08 00:20:25;;;;;;;52.47;29.80;;;4.40;84.90;;;;;;4421342;32;20162;-66
2021/03/08 00:22:52;;;;;;;50.77;29.87;;;4.40;85.20;;;;;;4423341;32;20174;-66
2021/03/08 00:25:21;;;;;;;54.00;30.03;;;4.40;85.50;;;;;;4422040;32;20174;-66
2021/03/08 00:27:47;;;;;;;52.73;29.37;;;4.40;85.20;;;;;;4421166;32;20150;-66
2021/03/08 00:30:15;;;;;;;53.77;29.40;;;4.40;84.90;;;;;;4422205;32;20192;-66
2021/03/08 00:32:43;;;;;;;52.23;29.17;;;4.40;85.10;;;;;;4421755;32;20524;-66
2021/03/08 00:35:11;;;;;;;51.10;29.07;;;4.40;85.10;;;;;;4420019;32;20165;-68
2021/03/08 00:37:37;;;;;;;48.77;28.80;;;4.40;84.80;;;;;;4421143;32;20166;-65
2021/03/08 00:40:06;;;;;;;50.80;29.43;;;4.40;85.10;;;;;;4418936;32;20144;-66
2021/03/08 00:42:33;;;;;;;53.43;30.10;;;4.40;85.10;;;;;;4420433;32;20509;-65
2021/03/08 00:45:00;;;;;;;56.30;30.47;;;4.30;85.60;;;;;;4420946;32;20170;-66
2021/03/08 00:47:27;;;;;;;49.63;28.97;;;4.40;85.50;;;;;;4421137;32;20166;-67
2021/03/08 00:49:54;;;;;;;47.03;28.37;;;4.40;85.20;;;;;;4419282;32;20238;-66
2021/03/08 00:52:20;;;;;;;53.13;30.07;;;4.50;85.10;;;;;;4420626;32;20162;-66
2021/03/08 00:54:47;;;;;;;55.00;30.13;;;4.40;85.10;;;;;;4420329;32;20147;-65
2021/03/08 00:57:13;;;;;;;53.73;29.10;;;4.40;85.10;;;;;;4417388;32;20181;-68
2021/03/08 00:59:40;;;;;;;52.97;29.67;;;4.40;85.10;;;;;;4414376;32;20605;-65
2021/03/08 01:02:07;;;;;;;49.00;27.90;;;4.40;85.70;;;;;;4420872;32;20166;-67
2021/03/08 01:04:33;;;;;;;51.27;29.30;;;4.40;85.50;;;;;;4420542;32;20195;-66
2021/03/08 01:07:01;;;;;;;52.27;29.33;;;4.40;85.40;;;;;;4420288;32;20151;-68
2021/03/08 01:09:27;;;;;;;51.53;31.23;;;4.40;86.10;;;;;;4420752;32;20155;-68
2021/03/08 01:11:54;;;;;;;60.13;31.73;;;4.30;85.80;;;;;;4420764;32;20146;-66
2021/03/08 01:14:20;;;;;;;57.83;31.93;;;4.40;86.00;;;;;;4423425;32;20160;-67
2021/03/08 01:16:49;;;;;;;48.20;30.20;;;4.40;86.40;;;;;;4420291;32;20193;-67
2021/03/08 01:19:16;;;;;;;52.33;29.80;;;4.30;86.50;;;;;;4421532;32;20164;-68
2021/03/08 01:21:43;;;;;;;52.27;29.70;;;4.40;86.40;;;;;;4417893;32;20156;-65
2021/03/08 01:24:10;;;;;;;59.23;32.63;;;4.30;86.40;;;;;;4420943;32;20646;-66
2021/03/08 01:26:37;;;;;;;55.97;30.40;;;4.30;86.80;;;;;;4412162;32;20174;-65
2021/03/08 01:29:03;;;;;;;55.70;31.50;;;4.20;87.00;;;;;;4420361;32;20170;-67
2021/03/08 01:31:30;;;;;;;51.27;30.13;;;4.20;86.90;;;;;;4419890;32;20188;-67
2021/03/08 01:33:56;;;;;;;55.30;30.30;;;4.30;86.70;;;;;;4422580;32;20159;-66
2021/03/08 01:36:23;;;;;;;53.80;29.90;;;4.30;86.70;;;;;;4421226;32;20160;-66
2021/03/08 01:38:49;;;;;;;55.07;31.33;;;4.20;87.00;;;;;;4419508;32;20143;-68
2021/03/08 01:41:18;;;;;;;54.33;30.23;;;4.20;87.20;;;;;;4413148;32;20201;-68
2021/03/08 01:43:44;;;;;;;56.13;31.47;;;4.20;87.40;;;;;;4417632;32;20199;-67
2021/03/08 01:46:10;;;;;;;56.23;32.13;;;4.20;86.70;;;;;;4420082;32;20157;-66
2021/03/08 01:48:37;;;;;;;53.03;29.40;;;4.30;86.90;;;;;;4419353;32;20143;-65
2021/03/08 01:51:05;;;;;;;60.13;31.97;;;4.30;86.60;;;;;;4420699;32;20166;-64
2021/03/08 01:53:32;;;;;;;55.07;30.17;;;4.20;87.00;;;;;;4421546;32;20647;-65
2021/03/08 01:55:59;;;;;;;52.77;29.20;;;4.30;87.10;;;;;;4419871;32;20186;-67
2021/03/08 01:58:26;;;;;;;53.50;29.90;;;4.30;86.80;;;;;;4420221;32;20210;-67
2021/03/08 02:00:53;;;;;;;57.20;33.30;;;4.40;86.70;;;;;;4416496;32;20174;-67
2021/03/08 02:03:22;;;;;;;57.03;31.63;;;4.20;87.20;;;;;;4419967;32;20148;-67
2021/03/08 02:05:49;;;;;;;57.27;30.97;;;4.20;87.30;;;;;;4417878;32;20148;-64
2021/03/08 02:08:19;;;;;;;57.47;31.67;;;4.20;87.20;;;;;;4420635;32;20171;-66
2021/03/08 02:10:46;;;;;;;54.17;30.30;;;4.20;87.60;;;;;;4419325;32;20185;-68
2021/03/08 02:13:42;;;;;;;51.67;29.67;;;4.20;87.50;;;;;;4419758;32;20143;-65
2021/03/08 02:16:13;;;;;;;53.30;31.00;;;4.30;87.10;;;;;;4420466;32;20170;-66
2021/03/08 02:18:47;;;;;;;54.13;30.07;;;4.30;87.30;;;;;;4420725;32;20223;-66
2021/03/08 02:21:48;;;;;;;51.90;28.40;;;4.30;86.80;;;;;;4411587;32;20581;-67
2021/03/08 02:24:49;;;;;;;50.47;29.30;;;4.40;86.60;;;;;;4334322;33;20259;-65
2021/03/08 02:27:34;;;;;;;55.50;29.77;;;4.30;86.90;;;;;;4331783;33;20249;-66
2021/03/08 02:30:09;;;;;;;53.90;30.90;;;4.30;86.90;;;;;;4338396;33;20176;-65
2021/03/08 02:32:40;;;;;;;50.53;30.30;;;4.40;86.80;;;;;;4343053;33;20250;-66
2021/03/08 02:35:12;;;;;;;53.10;31.40;;;4.40;86.30;;;;;;4342798;33;20211;-67
2021/03/08 02:37:45;;;;;;;51.70;30.43;;;4.40;86.40;;;;;;4344284;33;20154;-68
2021/03/08 02:40:15;;;;;;;52.73;30.77;;;4.40;86.50;;;;;;4337107;33;20668;-66
2021/03/08 02:42:45;;;;;;;50.13;29.40;;;4.40;86.50;;;;;;4336273;33;20155;-66
2021/03/08 02:45:17;;;;;;;53.97;30.00;;;4.50;86.40;;;;;;4341859;33;20278;-66
2021/03/08 02:47:48;;;;;;;49.27;30.07;;;4.50;86.10;;;;;;4341752;33;20164;-65
2021/03/08 02:50:17;;;;;;;53.60;30.80;;;4.50;85.90;;;;;;4343461;33;20180;-64
2021/03/08 02:52:51;;;;;;;52.93;32.17;;;4.50;86.20;;;;;;4342547;33;20223;-67
2021/03/08 02:55:18;;;;;;;56.80;31.50;;;4.60;86.10;;;;;;4344650;33;20248;-67
2021/03/08 02:57:47;;;;;;;52.87;29.70;;;4.50;86.10;;;;;;4334823;33;20207;-64
2021/03/08 03:00:14;;;;;;;53.00;30.90;;;4.40;86.20;;;;;;4348704;32;20160;-65
2021/03/08 03:02:42;;;;;;;52.13;31.03;;;4.50;85.90;;;;;;4417069;32;20197;-65
2021/03/08 03:05:13;;;;;;;55.30;30.87;;;4.50;86.00;;;;;;4419571;32;20143;-68
2021/03/08 03:07:45;;;;;;;50.73;30.27;;;4.50;85.80;;;;;;4416487;32;20178;-65
2021/03/08 03:10:17;;;;;;;57.70;30.97;;;4.50;86.00;;;;;;4418388;32;20151;-65
2021/03/08 03:12:46;;;;;;;55.97;29.93;;;4.50;86.10;;;;;;4405136;32;20140;-64
2021/03/08 03:15:14;;;;;;;53.03;30.23;;;4.40;86.00;;;;;;4417390;32;20141;-68
2021/03/08 03:17:42;;;;;;;50.10;29.30;;;4.40;86.40;;;;;;4420446;32;20161;-65
2021/03/08 03:20:14;;;;;;;61.70;32.23;;;4.40;86.50;;;;;;4419174;32;20163;-65
2021/03/08 03:22:44;;;;;;;52.90;31.17;;;4.30;87.40;;;;;;4419988;32;20211;-67
2021/03/08 03:25:15;;;;;;;53.47;31.13;;;4.40;86.40;;;;;;4421264;32;20545;-65
2021/03/08 03:27:43;;;;;;;56.17;30.83;;;4.40;86.70;;;;;;4419226;32;20576;-64
2021/03/08 03:30:11;;;;;;;52.30;30.87;;;4.30;86.80;;;;;;4419361;32;20151;-66
2021/03/08 03:32:38;;;;;;;54.87;31.73;;;4.40;86.60;;;;;;4420580;32;20196;-65
2021/03/08 03:35:05;;;;;;;53.83;31.47;;;4.30;86.80;;;;;;4420226;32;20140;-64
2021/03/08 03:37:33;;;;;;;58.83;30.50;;;4.20;87.20;;;;;;4422215;32;20145;-65
2021/03/08 03:40:00;;;;;;;56.97;30.03;;;4.20;86.90;;;;;;4422451;32;20213;-64
2021/03/08 03:42:26;;;;;;;54.87;29.70;;;4.30;87.20;;;;;;4422611;32;20500;-65
2021/03/08 03:44:53;;;;;;;59.77;30.27;;;4.40;86.80;;;;;;4422675;32;20220;-65
2021/03/08 03:47:21;;;;;;;49.10;28.33;;;4.30;86.80;;;;;;4421723;32;20144;-65
2021/03/08 03:49:47;;;;;;;50.37;29.40;;;4.30;86.90;;;;;;4421771;32;20248;-65
2021/03/08 03:52:14;;;;;;;58.87;31.13;;;4.40;86.70;;;;;;4424196;32;20164;-65
2021/03/08 03:54:41;;;;;;;56.70;29.90;;;4.40;86.40;;;;;;4423746;32;20147;-65
2021/03/08 03:57:12;;;;;;;53.47;30.10;;;4.40;86.70;;;;;;4423979;32;20197;-65
2021/03/08 03:59:46;;;;;;;51.93;30.30;;;4.40;86.70;;;;;;4423352;32;20209;-65
2021/03/08 04:02:16;;;;;;;55.20;31.83;;;4.40;86.80;;;;;;4420650;32;20207;-64
2021/03/08 04:04:49;;;;;;;48.73;29.00;;;4.30;86.80;;;;;;4421941;32;20165;-64
2021/03/08 04:07:18;;;;;;;54.50;29.87;;;4.40;86.80;;;;;;4420802;32;20250;-65
2021/03/08 04:09:49;;;;;;;51.17;29.97;;;4.40;86.30;;;;;;4421647;32;20286;-65
2021/03/08 04:12:19;;;;;;;51.47;31.27;;;4.40;86.80;;;;;;4422118;32;20613;-65
2021/03/08 04:14:50;;;;;;;57.33;31.03;;;4.40;86.80;;;;;;4419141;32;20147;-65
2021/03/08 04:17:17;;;;;;;53.33;28.97;;;4.30;86.90;;;;;;4421065;32;20147;-65
2021/03/08 04:19:45;;;;;;;54.17;29.47;;;4.30;87.10;;;;;;4419340;32;20483;-65
2021/03/08 04:22:15;;;;;;;51.33;30.60;;;4.40;86.90;;;;;;4421871;32;20192;-64
2021/03/08 04:24:47;;;;;;;52.97;29.17;;;4.40;86.60;;;;;;4421423;32;20163;-66
2021/03/08 04:27:15;;;;;;;53.07;30.70;;;4.40;86.60;;;;;;4421417;32;20167;-65
2021/03/08 04:29:43;;;;;;;56.27;30.47;;;4.40;86.80;;;;;;4422461;32;20155;-65
2021/03/08 04:32:12;;;;;;;56.20;30.97;;;4.40;87.00;;;;;;4421367;32;20156;-66
2021/03/08 04:34:44;;;;;;;54.40;31.00;;;4.30;87.00;;;;;;4412634;32;20151;-65
2021/03/08 04:37:26;;;;;;;53.97;30.07;;;4.50;86.80;;;;;;4422267;32;20178;-66
2021/03/08 04:39:59;;;;;;;50.53;28.90;;;4.40;86.80;;;;;;4422277;32;20141;-65
2021/03/08 04:42:26;;;;;;;54.70;30.00;;;4.40;86.80;;;;;;4422299;32;20547;-65
2021/03/08 04:44:53;;;;;;;55.30;31.70;;;4.40;86.70;;;;;;4420123;32;20139;-65
2021/03/08 04:47:21;;;;;;;50.43;30.03;;;4.50;87.10;;;;;;4420665;32;20660;-65
2021/03/08 04:49:49;;;;;;;55.40;30.13;;;4.40;86.60;;;;;;4421347;32;20148;-65
2021/03/08 04:52:18;;;;;;;55.73;30.80;;;4.40;86.90;;;;;;4419082;32;20195;-65
2021/03/08 04:54:46;;;;;;;53.40;31.00;;;4.40;86.80;;;;;;4419930;32;20150;-65
2021/03/08 04:57:19;;;;;;;56.10;31.43;;;4.40;86.80;;;;;;4414931;32;20155;-65
2021/03/08 04:59:47;;;;;;;49.27;30.23;;;4.40;86.80;;;;;;4415317;32;20206;-65
2021/03/08 05:02:15;;;;;;;50.00;29.43;;;4.40;87.00;;;;;;4419009;32;20159;-65
2021/03/08 05:04:46;;;;;;;58.00;31.17;;;4.40;87.10;;;;;;4419148;32;20197;-66
2021/03/08 05:07:16;;;;;;;53.90;29.50;;;4.40;87.20;;;;;;4420920;32;20174;-65
2021/03/08 05:09:45;;;;;;;57.97;29.70;;;4.40;86.80;;;;;;4421425;32;20221;-66
2021/03/08 05:12:16;;;;;;;53.07;31.13;;;4.40;86.70;;;;;;4419421;32;20576;-65
2021/03/08 05:14:44;;;;;;;54.37;28.87;;;4.50;86.60;;;;;;4421530;32;20171;-66
2021/03/08 05:17:14;;;;;;;53.23;30.13;;;4.50;86.40;;;;;;4415317;32;20176;-65
2021/03/08 05:19:43;;;;;;;54.50;30.80;;;4.60;86.20;;;;;;4417616;32;20140;-66
2021/03/08 05:22:10;;;;;;;59.00;31.83;;;4.50;86.70;;;;;;4420616;32;20170;-65
2021/03/08 05:24:37;;;;;;;55.40;31.37;;;4.40;87.00;;;;;;4421511;32;20196;-65
2021/03/08 05:27:08;;;;;;;50.73;30.73;;;4.30;87.40;;;;;;4421050;32;20166;-64
2021/03/08 05:29:39;;;;;;;55.60;32.50;;;4.30;87.60;;;;;;4421660;32;20467;-66
2021/03/08 05:32:10;;;;;;;56.53;30.87;;;4.40;87.60;;;;;;4419291;32;20205;-66
2021/03/08 05:34:40;;;;;;;57.80;31.53;;;4.40;87.20;;;;;;4422126;32;20569;-65
2021/03/08 05:37:10;;;;;;;53.57;30.60;;;4.40;87.50;;;;;;4420636;32;20165;-65
2021/03/08 05:39:36;;;;;;;51.10;29.37;;;4.40;87.70;;;;;;4420928;32;20144;-64
2021/03/08 05:42:08;;;;;;;60.50;30.83;;;4.60;87.50;;;;;;4415996;32;20175;-64
2021/03/08 05:44:41;;;;;;;52.17;29.50;;;4.50;87.20;;;;;;4416933;32;20177;-65
2021/03/08 05:47:55;;;;;;;50.93;28.60;;;4.50;87.10;;;;;;4418108;32;20172;-66
2021/03/08 05:51:02;;;;;;;48.70;28.47;;;4.50;87.20;;;;;;4328825;33;20179;-67
2021/03/08 05:54:04;;;;;;;53.20;28.70;;;4.50;87.30;;;;;;4335260;33;20157;-65
2021/03/08 05:56:44;;;;;;;53.70;30.47;;;4.50;86.90;;;;;;4274004;33;20591;-66
2021/03/08 05:59:34;;;;;;;48.07;28.07;;;4.50;86.90;;;;;;4274850;33;20155;-65
2021/03/08 06:02:19;;;;;;;52.57;29.47;;;4.60;86.50;;;;;;4273529;33;20166;-64
2021/03/08 06:05:14;;;;;;;55.37;31.63;;;4.70;86.10;;;;;;4281815;33;20194;-66
2021/03/08 06:08:40;;;;;;;51.00;30.47;;;4.70;86.10;;;;;;4271803;33;20647;-66
2021/03/08 06:11:09;;;;;;;55.03;30.23;;;4.70;86.20;;;;;;4270605;33;20612;-67
2021/03/08 06:13:46;;;;;;;53.20;30.47;;;4.70;86.30;;;;;;4278085;33;20154;-67
2021/03/08 06:16:17;;;;;;;52.17;30.30;;;4.80;86.40;;;;;;4275295;33;20170;-68
2021/03/08 06:18:52;;;;;;;49.67;29.13;;;4.70;86.30;;;;;;4272201;33;20176;-66
2021/03/08 06:21:28;;;;;;;55.70;30.70;;;4.90;85.90;;;;;;4270838;33;20190;-66
2021/03/08 06:23:55;;;;;;;46.83;28.93;;;4.90;85.70;;;;;;4269857;33;20233;-65
2021/03/08 06:26:23;;;;;;;54.23;30.97;;;4.90;85.60;;;;;;4283318;33;20197;-65
2021/03/08 06:28:53;;;;;;;55.67;30.80;;;5.00;85.60;;;;;;4340216;33;20577;-66
2021/03/08 06:31:24;;;;;;;51.53;30.17;;;5.00;85.10;;;;;;4345360;32;20179;-65
2021/03/08 06:33:51;;;;;;;54.27;31.37;;;5.10;84.90;;;;;;4386076;32;20186;-65
2021/03/08 06:36:18;;;;;;;56.03;29.93;;;4.90;85.30;;;;;;4328943;32;2625401;-64
2021/03/08 06:38:45;;;;;;;52.20;31.07;;;4.90;85.50;;;;;;4405733;32;20502;-64
2021/03/08 06:41:13;;;;;;;55.17;30.40;;;4.90;85.60;;;;;;4407903;32;20203;-66
2021/03/08 06:43:41;;;;;;;53.73;29.63;;;4.90;85.60;;;;;;4410756;32;20175;-67
2021/03/08 06:46:08;;;;;;;55.37;32.10;;;4.90;85.70;;;;;;4408502;32;20178;-65
2021/03/08 06:48:35;;;;;;;55.87;31.33;;;5.00;85.10;;;;;;4413364;32;20587;-67
2021/03/08 06:51:13;;;;;;;53.00;31.33;;;4.90;85.50;;;;;;4409211;32;20172;-65
2021/03/08 06:53:49;;;;;;;51.80;29.43;;;5.10;85.20;;;;;;4408145;32;20180;-66
2021/03/08 06:56:18;;;;;;;57.77;31.20;;;5.10;85.00;;;;;;4403543;32;20210;-67
2021/03/08 06:59:02;;;;;;;52.50;30.97;;;5.10;85.10;;;;;;4409838;32;20327;-67
2021/03/08 07:01:33;;;;;;;49.80;29.73;;;5.10;85.00;;;;;;4404619;32;21075;-67
2021/03/08 07:04:12;;;;;;;57.57;30.77;;;5.20;84.90;;;;;;4407764;32;20167;-67
2021/03/08 07:06:53;;;;;;;55.57;31.80;;;5.20;84.80;;;;;;4408587;32;20642;-68
2021/03/08 07:09:20;;;;;;;50.43;29.47;;;5.30;84.40;;;;;;4410697;32;20151;-67
2021/03/08 07:12:04;;;;;;;54.10;31.33;;;5.30;84.40;;;;;;4412191;32;20186;-66
2021/03/08 07:14:32;;;;;;;54.70;30.57;;;5.50;83.90;;;;;;4412703;32;20182;-67
2021/03/08 07:17:42;;;;;;;54.97;30.20;;;5.40;83.80;;;;;;4412436;32;20169;-67
2021/03/08 07:20:23;;;;;;;49.97;28.90;;;5.40;84.10;;;;;;4368497;32;20199;-66
2021/03/08 07:22:57;;;;;;;61.73;31.83;;;5.50;84.20;;;;;;4367636;32;20234;-68
2021/03/08 07:25:26;;;;;;;51.53;30.27;;;5.40;83.80;;;;;;4360989;32;20245;-67
2021/03/08 07:27:54;;;;;;;53.67;29.93;;;5.50;84.00;;;;;;4369274;32;20231;-69
2021/03/08 07:30:33;;;;;;;51.30;28.90;;;5.60;83.90;;;;;;4368742;32;20188;-66
2021/03/08 07:33:04;;;;;;;55.13;30.07;;;5.60;83.70;;;;;;4371656;32;20651;-66
2021/03/08 07:35:46;;;;;;;48.07;29.47;;;5.80;83.30;;;;;;4365958;32;20194;-66
2021/03/08 07:38:34;;;;;;;47.70;29.43;;;5.80;83.00;;;;;;4367421;32;20207;-67
2021/03/08 07:41:19;;;;;;;48.53;28.67;;;5.80;82.80;;;;;;4367669;32;20303;-66
2021/03/08 07:43:48;;;;;;;51.80;29.43;;;5.90;82.80;;;;;;4367678;32;20602;-65
2021/03/08 07:46:33;;;;;;;52.73;29.63;;;5.80;82.30;;;;;;4365601;32;20266;-66
2021/03/08 07:49:08;;;;;;;51.60;29.00;;;5.90;82.70;;;;;;4366190;32;20632;-65
2021/03/08 07:51:59;;;;;;;43.10;26.80;;;5.90;82.70;;;;;;4371928;32;20164;-65
2021/03/08 07:57:14;;;;;;;46.03;27.73;;;6.10;82.20;;;;;;4388539;32;20635;-68
2021/03/08 07:59:41;;;;;;;45.80;27.53;;;6.20;81.80;;;;;;4406192;32;20627;-66
2021/03/08 08:02:07;;;;;;;48.73;28.93;;;6.20;81.80;;;;;;4403778;32;20241;-68
2021/03/08 08:04:33;;;;;;;50.73;28.33;;;6.20;81.70;;;;;;4398990;32;20204;-66
2021/03/08 08:07:05;;;;;;;43.57;26.57;;;6.20;81.20;;;;;;4402474;32;20187;-66
2021/03/08 08:09:33;;;;;;;47.47;26.47;;;6.40;81.50;;;;;;4407117;32;20159;-65
2021/03/08 08:12:14;;;;;;;46.33;27.67;;;6.30;81.60;;;;;;4401390;32;20266;-66
2021/03/08 08:14:49;;;;;;;46.10;27.43;;;6.50;81.30;;;;;;4398849;32;20218;-67
2021/03/08 08:17:21;;;;;;;39.20;24.67;;;6.50;81.10;;;;;;4403632;32;20164;-69
2021/03/08 08:19:53;;;;;;;47.33;27.87;;;6.60;81.00;;;;;;4405767;32;20167;-67
2021/03/08 08:22:24;;;;;;;48.37;27.93;;;6.80;80.50;;;;;;4399582;32;20202;-66
2021/03/08 08:24:55;;;;;;;45.97;27.10;;;6.80;80.30;;;;;;4399145;32;20225;-68
2021/03/08 08:27:23;;;;;;;47.07;27.93;;;6.80;79.80;;;;;;4404623;32;20182;-68
2021/03/08 08:29:53;;;;;;;45.70;26.47;;;6.80;79.70;;;;;;4393377;32;20159;-68
2021/03/08 08:32:19;;;;;;;52.33;26.20;;;6.90;79.90;;;;;;4402130;32;20159;-65
2021/03/08 08:34:59;;;;;;;42.83;25.77;;;7.10;79.40;;;;;;4405390;32;20223;-65
2021/03/08 08:37:28;;;;;;;43.17;25.73;;;7.10;79.40;;;;;;4403549;32;20293;-65
2021/03/08 08:40:16;;;;;;;43.33;26.57;;;7.30;79.40;;;;;;4402214;32;20215;-67
2021/03/08 08:42:45;;;;;;;42.27;25.53;;;7.20;77.60;;;;;;4405099;32;20148;-67
2021/03/08 08:45:32;;;;;;;43.83;26.20;;;7.30;78.40;;;;;;4404655;32;20209;-66
2021/03/08 08:48:07;;;;;;;43.97;26.43;;;7.50;78.30;;;;;;4404138;32;20164;-69
2021/03/08 08:50:49;;;;;;;44.00;25.47;;;7.80;77.40;;;;;;4404190;32;20193;-68
2021/03/08 08:53:44;;;;;;;39.50;24.50;;;7.70;76.40;;;;;;4404175;32;20183;-67
2021/03/08 08:56:12;;;;;;;43.30;23.97;;;7.80;76.50;;;;;;4402633;32;20160;-68
2021/03/08 08:58:44;;;;;;;37.63;23.37;;;8.00;76.20;;;;;;4399425;32;20180;-69
2021/03/08 09:01:27;;;;;;;41.20;24.70;;;8.10;76.00;;;;;;4394760;32;20215;-69
2021/03/08 09:04:02;;;;;;;39.97;25.43;;;7.90;75.60;;;;;;4400757;32;20256;-69
2021/03/08 09:06:43;;;;;;;41.47;25.30;;;8.20;75.10;;;;;;4405442;32;20151;-69
2021/03/08 09:09:18;;;;;;;40.63;23.87;;;8.20;75.00;;;;;;4399996;32;20178;-70
2021/03/08 09:11:50;;;;;;;39.27;24.40;;;8.40;74.50;;;;;;4406363;32;20493;-69
2021/03/08 09:14:53;;;;;;;44.83;23.87;;;8.60;73.60;;;;;;4404518;32;20194;-69
2021/03/08 09:17:22;;;;;;;38.63;23.33;;;8.60;73.40;;;;;;4392959;32;20223;-68
2021/03/08 09:20:30;;;;;;;42.00;23.13;;;8.70;73.20;;;;;;4400482;32;20156;-70
2021/03/08 09:23:01;;;;;;;38.37;24.33;;;8.80;72.80;;;;;;4392621;32;20297;-67
2021/03/08 09:25:28;;;;;;;39.67;24.17;;;9.00;72.30;;;;;;4400408;32;20183;-68
2021/03/08 09:28:15;;;;;;;36.73;21.93;;;9.00;71.70;;;;;;4401363;32;20182;-68
2021/03/08 09:30:46;;;;;;;40.70;23.83;;;9.10;72.10;;;;;;4400781;32;20159;-70
2021/03/08 09:33:15;;;;;;;41.83;23.53;;;9.20;71.80;;;;;;4398665;32;20156;-68
2021/03/08 09:35:48;;;;;;;35.97;21.23;;;9.20;70.30;;;;;;4413344;32;20152;-69
2021/03/08 09:38:23;;;;;;;40.77;22.80;;;9.20;70.80;;;;;;4408491;32;20348;-69
2021/03/08 09:41:01;;;;;;;37.30;22.20;;;8.90;70.90;;;;;;4411327;32;20239;-69
2021/03/08 09:43:38;;;;;;;41.60;21.93;;;9.00;71.50;;;;;;4412804;32;20264;-68
2021/03/08 09:46:06;;;;;;;40.77;21.83;;;8.70;71.90;;;;;;4405619;32;20173;-67
2021/03/08 09:48:35;;;;;;;40.23;21.30;;;8.70;72.20;;;;;;4415707;32;20167;-69
2021/03/08 09:54:06;;;;;;;37.77;21.30;;;8.80;72.40;;;;;;4351453;33;20212;-69
2021/03/08 09:56:45;;;;;;;38.07;20.13;;;9.30;71.50;;;;;;4355865;33;20650;-69
2021/03/08 09:59:19;;;;;;;33.60;20.20;;;9.90;69.80;;;;;;4357534;32;20196;-69
2021/03/08 10:01:55;;;;;;;28.43;17.80;;;10.10;66.50;;;;;;4358390;32;20294;-69
2021/03/08 10:04:33;;;;;;;28.40;18.00;;;10.60;66.30;;;;;;4357517;32;20157;-68
2021/03/08 10:07:05;;;;;;;33.93;18.03;;;10.90;65.20;;;;;;4357244;33;20228;-69
2021/03/08 10:09:44;;;;;;;29.47;18.70;;;11.30;63.40;;;;;;4357605;33;20166;-69
2021/03/08 10:12:12;;;;;;;27.43;18.37;;;11.40;61.40;;;;;;4351444;32;20266;-68
2021/03/08 10:14:39;;;;;;;28.27;17.60;;;11.60;60.60;;;;;;4357107;32;20171;-70
2021/03/08 10:17:13;;;;;;;38.83;18.87;;;11.00;61.30;;;;;;4356939;32;20163;-69
2021/03/08 10:19:39;;;;;;;28.60;16.83;;;11.40;62.00;;;;;;4351365;32;20174;-69
2021/03/08 10:22:09;;;;;;;27.03;16.77;;;11.80;61.30;;;;;;4352813;32;20177;-68
2021/03/08 10:24:50;;;;;;;28.60;17.07;;;11.80;60.10;;;;;;4354771;32;20182;-70
2021/03/08 10:27:33;;;;;;;31.13;19.60;;;11.70;60.60;;;;;;4355755;32;20205;-69
2021/03/08 10:30:00;;;;;;;28.90;17.90;;;11.10;61.90;;;;;;4362192;32;20204;-69
2021/03/08 10:32:35;;;;;;;28.60;18.93;;;10.50;64.10;;;;;;4410813;32;20201;-69
2021/03/08 10:35:01;;;;;;;32.17;18.77;;;9.80;65.70;;;;;;4406319;32;20438;-69
2021/03/08 10:37:30;;;;;;;27.67;18.57;;;8.80;68.20;;;;;;4390690;32;20217;-69
2021/03/08 10:39:58;;;;;;;32.67;19.40;;;8.70;70.40;;;;;;4398050;32;20178;-70
2021/03/08 10:42:28;;;;;;;34.50;19.93;;;8.90;70.20;;;;;;4393937;32;20213;-69
2021/03/08 10:44:59;;;;;;;32.77;19.47;;;9.00;70.90;;;;;;4396866;32;20258;-69
2021/03/08 10:47:38;;;;;;;31.70;18.50;;;9.20;70.90;;;;;;4396003;32;20159;-69
2021/03/08 10:50:11;;;;;;;28.93;18.83;;;9.50;70.10;;;;;;4396084;32;20183;-69
2021/03/08 10:52:39;;;;;;;30.90;18.23;;;9.30;68.20;;;;;;4393567;32;20236;-70
2021/03/08 10:55:08;;;;;;;28.17;17.10;;;9.80;68.50;;;;;;4395156;32;20156;-72
2021/03/08 10:57:52;;;;;;;26.57;17.80;;;10.30;65.20;;;;;;4399677;32;20178;-72
2021/03/08 11:00:27;;;;;;;27.63;18.20;;;10.30;65.10;;;;;;4398206;32;20586;-71
2021/03/08 11:02:55;;;;;;;30.47;18.80;;;10.70;65.60;;;;;;4398187;32;20214;-70
2021/03/08 11:05:32;;;;;;;28.20;17.23;;;11.10;63.60;;;;;;4395796;32;20179;-70
2021/03/08 11:07:59;;;;;;;32.03;20.07;;;11.60;63.60;;;;;;4395940;32;20167;-69
2021/03/08 11:10:36;;;;;;;28.77;18.33;;;10.90;62.40;;;;;;4395113;32;20152;-69
2021/03/08 11:13:05;;;;;;;28.67;18.17;;;10.80;64.70;;;;;;4396571;32;20161;-70
2021/03/08 11:15:33;;;;;;;28.67;18.67;;;11.20;64.30;;;;;;4397429;32;20161;-70
2021/03/08 11:18:00;;;;;;;26.93;17.37;;;11.60;62.80;;;;;;4393199;32;20160;-68
2021/03/08 11:20:32;;;;;;;27.47;18.10;;;11.90;62.40;;;;;;4395047;32;20208;-69
2021/03/08 11:23:03;;;;;;;28.63;18.27;;;11.10;63.90;;;;;;4395868;32;20180;-69
2021/03/08 11:25:38;;;;;;;28.47;17.50;;;11.10;63.00;;;;;;4396876;32;20511;-70
2021/03/08 11:28:07;;;;;;;24.07;16.03;;;11.60;62.60;;;;;;4394002;32;20237;-69
2021/03/08 11:30:35;;;;;;;26.63;16.03;;;11.80;61.50;;;;;;4391840;32;20190;-70
2021/03/08 11:33:06;;;;;;;24.70;16.53;;;11.80;60.80;;;;;;4389791;32;20156;-71
2021/03/08 11:35:34;;;;;;;27.07;15.80;;;11.90;61.60;;;;;;4396422;32;20673;-70
2021/03/08 11:38:04;;;;;;;26.53;16.47;;;11.40;60.30;;;;;;4411027;32;20167;-71
2021/03/08 11:40:33;;;;;;;25.13;14.30;;;11.50;60.70;;;;;;4411910;32;20164;-69
2021/03/08 11:43:06;;;;;;;22.70;14.60;;;11.30;60.10;;;;;;4411987;32;20224;-71
2021/03/08 11:45:33;;;;;;;21.13;13.00;;;10.80;59.60;;;;;;4412180;32;20156;-71
2021/03/08 11:48:03;;;;;;;27.80;17.40;;;10.70;60.70;;;;;;4410164;32;20173;-69
2021/03/08 11:50:31;;;;;;;27.87;17.73;;;10.80;61.70;;;;;;4417550;32;20514;-69
2021/03/08 11:53:01;;;;;;;32.27;19.33;;;10.70;62.40;;;;;;4409668;32;20158;-70
2021/03/08 11:55:30;;;;;;;28.07;18.03;;;10.30;64.00;;;;;;4415472;32;20168;-69
2021/03/08 11:57:57;;;;;;;32.07;17.67;;;10.00;65.40;;;;;;4411987;32;20210;-70
2021/03/08 12:00:27;;;;;;;29.13;17.90;;;10.10;64.90;;;;;;4413810;32;20196;-69
2021/03/08 12:02:54;;;;;;;27.17;16.90;;;10.40;63.30;;;;;;4411996;32;20176;-71
2021/03/08 12:05:21;;;;;;;26.83;16.33;;;10.80;63.70;;;;;;4414774;32;20205;-69
2021/03/08 12:07:53;;;;;;;28.30;16.33;;;11.00;63.50;;;;;;4415243;32;20217;-70
2021/03/08 12:10:25;;;;;;;25.90;17.17;;;11.40;61.80;;;;;;4412588;32;20259;-70
2021/03/08 12:12:54;;;;;;;24.77;16.47;;;11.40;60.20;;;;;;4412075;32;20549;-70
2021/03/08 12:15:20;;;;;;;26.83;17.27;;;11.50;60.30;;;;;;4416225;32;20167;-74
2021/03/08 12:17:49;;;;;;;26.60;15.83;;;11.50;61.50;;;;;;4414381;32;20187;-70
2021/03/08 12:20:16;;;;;;;24.33;16.03;;;11.30;61.60;;;;;;4416470;32;20476;-71
2021/03/08 12:22:43;;;;;;;27.27;16.50;;;11.40;60.80;;;;;;4411644;32;20220;-71
2021/03/08 12:25:11;;;;;;;25.37;14.47;;;11.60;61.00;;;;;;4416016;32;20189;-70
2021/03/08 12:27:37;;;;;;;28.50;16.53;;;11.80;60.60;;;;;;4414300;32;20161;-70
2021/03/08 12:30:06;;;;;;;28.63;17.53;;;11.90;59.70;;;;;;4407550;32;20222;-70
2021/03/08 12:32:37;;;;;;;30.00;18.17;;;11.90;60.00;;;;;;4410563;32;20208;-70
2021/03/08 12:35:11;;;;;;;29.10;19.30;;;12.20;59.90;;;;;;4413374;32;20610;-71
2021/03/08 12:37:37;;;;;;;31.30;18.93;;;12.00;59.90;;;;;;4403978;32;20214;-71
2021/03/08 12:40:05;;;;;;;31.47;19.13;;;12.00;59.40;;;;;;4406081;32;20202;-69
2021/03/08 12:42:32;;;;;;;30.10;18.20;;;12.20;59.20;;;;;;4406831;32;20163;-71
2021/03/08 12:44:58;;;;;;;30.37;18.97;;;12.40;59.80;;;;;;4412182;32;20159;-70
2021/03/08 12:47:30;;;;;;;28.57;17.10;;;12.50;58.80;;;;;;4407600;32;20241;-69
2021/03/08 12:49:56;;;;;;;33.67;18.97;;;12.30;58.90;;;;;;4407959;32;20225;-69
2021/03/08 12:52:23;;;;;;;27.50;18.10;;;11.80;59.60;;;;;;4412176;32;20190;-71
2021/03/08 12:54:49;;;;;;;30.87;18.43;;;11.60;60.50;;;;;;4417168;32;20221;-71
2021/03/08 12:57:17;;;;;;;23.93;16.23;;;11.60;61.20;;;;;;4407113;32;20159;-71
2021/03/08 12:59:43;;;;;;;28.13;17.03;;;11.60;60.70;;;;;;4407853;32;20186;-71
2021/03/08 13:02:12;;;;;;;25.17;15.27;;;11.50;60.10;;;;;;4411207;32;20185;-71
2021/03/08 13:04:39;;;;;;;21.87;14.20;;;11.70;60.80;;;;;;4411061;32;20174;-71